createdAt,value
2023-04-09T00:01:08.814Z,15.93
2023-04-09T00:04:10.600Z,16.20
2023-04-09T00:07:12.103Z,16.38
2023-04-09T00:10:13.639Z,16.63
2023-04-09T00:13:16.967Z,16.10
2023-04-09T00:16:21.818Z,16.48
2023-04-09T00:19:23.335Z,15.20
2023-04-09T00:22:24.913Z,17.25
2023-04-09T00:25:26.479Z,16.38
2023-04-09T00:28:27.972Z,16.50
2023-04-09T00:31:29.438Z,16.00
2023-04-09T00:34:31.230Z,16.98
2023-04-09T00:37:32.705Z,15.20
2023-04-09T00:40:34.148Z,15.90
2023-04-09T00:43:35.703Z,14.90
2023-04-09T00:46:37.962Z,14.52
2023-04-09T00:49:39.563Z,13.73
2023-04-09T00:52:41.090Z,12.73
2023-04-09T00:55:42.638Z,13.35
2023-04-09T00:58:44.316Z,14.18
2023-04-09T01:01:45.956Z,12.38
2023-04-09T01:04:47.904Z,11.90
2023-04-09T01:08:15.982Z,13.65
2023-04-09T01:11:44.448Z,13.60
2023-04-09T01:14:56.970Z,13.90
2023-04-09T01:18:24.466Z,12.98
2023-04-09T01:21:31.262Z,13.60
2023-04-09T01:25:01.037Z,15.25
2023-04-09T01:28:20.883Z,14.68
2023-04-09T01:31:34.117Z,14.10
2023-04-09T01:34:36.566Z,13.85
2023-04-09T01:37:40.092Z,14.98
2023-04-09T01:40:42.905Z,14.32
2023-04-09T01:43:45.742Z,14.15
2023-04-09T01:46:48.590Z,14.68
2023-04-09T01:49:51.578Z,15.88
2023-04-09T01:52:53.465Z,14.70
2023-04-09T01:55:56.659Z,14.65
2023-04-09T01:58:58.098Z,14.98
2023-04-09T02:02:11.282Z,15.25
2023-04-09T02:05:17.961Z,15.43
2023-04-09T02:08:21.488Z,15.65
2023-04-09T02:11:23.880Z,14.77
2023-04-09T02:14:26.550Z,16.42
2023-04-09T02:17:28.116Z,15.60
2023-04-09T02:20:29.622Z,15.95
2023-04-09T02:23:33.210Z,16.95
2023-04-09T02:26:34.689Z,16.83
2023-04-09T02:29:36.191Z,17.77
2023-04-09T02:32:37.829Z,19.00
2023-04-09T02:35:39.357Z,19.30
2023-04-09T02:38:42.003Z,18.38
2023-04-09T02:41:44.013Z,19.05
2023-04-09T02:44:45.467Z,19.48
2023-04-09T02:47:48.339Z,19.48
2023-04-09T02:50:50.037Z,17.92
2023-04-09T02:53:51.541Z,19.05
2023-04-09T02:56:53.027Z,18.83
2023-04-09T02:59:54.501Z,17.98
2023-04-09T03:02:56.350Z,18.25
2023-04-09T03:05:57.925Z,19.65
2023-04-09T03:08:59.509Z,18.95
2023-04-09T03:12:01.941Z,17.45
2023-04-09T03:15:04.560Z,19.33
2023-04-09T03:18:06.015Z,18.25
2023-04-09T03:21:08.297Z,16.25
2023-04-09T03:24:12.706Z,18.33
2023-04-09T03:27:14.920Z,17.65
2023-04-09T03:30:16.781Z,18.92
2023-04-09T03:33:20.249Z,18.10
2023-04-09T03:36:31.176Z,18.10
2023-04-09T03:39:44.350Z,19.63
2023-04-09T03:42:45.878Z,17.10
2023-04-09T03:45:50.500Z,17.90
2023-04-09T03:48:57.324Z,19.23
2023-04-09T03:52:07.197Z,18.08
2023-04-09T03:55:12.617Z,18.42
2023-04-09T03:58:14.269Z,17.63
2023-04-09T04:01:16.168Z,18.25
2023-04-09T04:04:28.329Z,18.92
2023-04-09T04:07:32.806Z,19.23
2023-04-09T04:10:40.717Z,18.00
2023-04-09T04:13:42.738Z,18.88
2023-04-09T04:16:45.133Z,18.35
2023-04-09T04:19:50.715Z,18.15
2023-04-09T04:22:52.314Z,16.92
2023-04-09T04:25:54.144Z,17.23
2023-04-09T04:29:03.054Z,17.30
2023-04-09T04:32:21.449Z,17.10
2023-04-09T04:35:23.676Z,17.05
2023-04-09T04:38:28.861Z,17.45
2023-04-09T04:41:32.172Z,15.57
2023-04-09T04:44:45.121Z,16.98
2023-04-09T04:47:56.207Z,17.70
2023-04-09T04:50:59.867Z,16.55
2023-04-09T04:54:06.704Z,16.15
2023-04-09T04:57:08.295Z,16.85
2023-04-09T05:00:15.176Z,16.70
2023-04-09T05:03:16.938Z,15.40
2023-04-09T05:06:35.355Z,16.98
2023-04-09T05:09:42.934Z,17.38
2023-04-09T05:12:44.563Z,16.55
2023-04-09T05:15:49.060Z,16.20
2023-04-09T05:18:51.203Z,15.32
2023-04-09T05:21:52.944Z,15.98
2023-04-09T05:24:56.971Z,16.15
2023-04-09T05:27:59.269Z,15.65
2023-04-09T05:31:01.604Z,16.13
2023-04-09T05:37:14.410Z,16.42
2023-04-09T05:40:19.803Z,15.73
2023-04-09T05:43:21.996Z,17.55
2023-04-09T05:46:23.548Z,16.45
2023-04-09T05:49:25.810Z,17.10
2023-04-09T05:55:32.402Z,18.50
2023-04-09T05:58:36.192Z,17.77
2023-04-09T06:01:37.769Z,17.10
2023-04-09T06:04:39.297Z,17.40
2023-04-09T06:07:40.881Z,18.20
2023-04-09T06:10:42.375Z,16.33
2023-04-09T06:13:43.990Z,16.83
2023-04-09T06:16:45.468Z,16.67
2023-04-09T06:19:47.497Z,16.90
2023-04-09T06:22:48.961Z,15.82
2023-04-09T06:25:50.430Z,16.17
2023-04-09T06:28:52.334Z,15.45
2023-04-09T06:31:54.064Z,14.82
2023-04-09T06:34:55.714Z,14.75
2023-04-09T06:37:57.193Z,16.17
2023-04-09T06:40:58.741Z,15.65
2023-04-09T06:44:00.622Z,15.98
2023-04-09T06:47:02.302Z,14.65
2023-04-09T06:50:04.164Z,14.45
2023-04-09T06:53:06.954Z,15.32
2023-04-09T06:56:08.546Z,14.05
2023-04-09T06:59:10.051Z,13.75
2023-04-09T07:02:11.958Z,14.27
2023-04-09T07:05:13.575Z,14.00
2023-04-09T07:08:15.271Z,13.13
2023-04-09T07:11:17.290Z,14.57
2023-04-09T07:14:18.918Z,13.57
2023-04-09T07:17:20.506Z,12.70
2023-04-09T07:20:22.018Z,13.32
2023-04-09T07:23:23.541Z,12.73
2023-04-09T07:26:25.022Z,12.25
2023-04-09T07:29:27.360Z,13.13
2023-04-09T07:32:29.339Z,12.45
2023-04-09T07:35:31.993Z,11.57
2023-04-09T07:38:33.522Z,11.75
2023-04-09T07:41:35.007Z,11.80
2023-04-09T07:44:36.728Z,11.95
2023-04-09T07:47:39.476Z,10.23
2023-04-09T07:50:40.931Z,11.10
2023-04-09T07:53:42.349Z,12.02
2023-04-09T07:56:43.880Z,11.60
2023-04-09T07:59:45.478Z,11.70
2023-04-09T08:02:47.176Z,10.80
2023-04-09T08:05:48.842Z,10.85
2023-04-09T08:08:50.862Z,10.60
2023-04-09T08:11:53.226Z,10.77
2023-04-09T08:14:54.747Z,9.65
2023-04-09T08:17:57.001Z,9.25
2023-04-09T08:20:58.552Z,9.23
2023-04-09T08:24:04.337Z,8.65
2023-04-09T08:27:05.792Z,8.35
2023-04-09T08:30:07.818Z,7.90
2023-04-09T08:33:09.648Z,8.30
2023-04-09T08:36:11.770Z,7.80
2023-04-09T08:39:13.300Z,8.20
2023-04-09T08:42:16.022Z,7.07
2023-04-09T08:45:17.561Z,6.63
2023-04-09T08:48:20.389Z,6.80
2023-04-09T08:51:24.013Z,6.45
2023-04-09T08:54:26.813Z,6.40
2023-04-09T08:57:28.396Z,6.78
2023-04-09T09:00:29.964Z,6.47
2023-04-09T09:03:31.524Z,6.85
2023-04-09T09:06:35.594Z,6.32
2023-04-09T09:09:53.946Z,6.63
2023-04-09T09:12:55.477Z,6.50
2023-04-09T09:16:15.132Z,6.30
2023-04-09T09:19:26.036Z,7.43
2023-04-09T09:22:27.582Z,6.03
2023-04-09T09:25:30.676Z,5.75
2023-04-09T09:28:36.090Z,6.72
2023-04-09T09:31:49.111Z,5.65
2023-04-09T09:35:07.514Z,5.82
2023-04-09T09:38:09.031Z,5.93
2023-04-09T09:41:20.604Z,5.68
2023-04-09T09:44:32.947Z,5.90
2023-04-09T09:47:34.716Z,6.47
2023-04-09T09:50:39.308Z,6.13
2023-04-09T09:53:45.868Z,6.05
2023-04-09T09:56:52.569Z,5.93
2023-04-09T10:00:00.660Z,6.00
2023-04-09T10:03:16.022Z,6.15
2023-04-09T10:06:18.368Z,5.32
2023-04-09T10:09:21.968Z,6.32
2023-04-09T10:12:25.044Z,5.93
2023-04-09T10:15:29.520Z,5.97
2023-04-09T10:18:33.496Z,6.25
2023-04-09T10:21:53.699Z,6.10
2023-04-09T10:24:55.817Z,5.78
2023-04-09T10:28:02.130Z,6.30
2023-04-09T10:31:05.551Z,6.05
2023-04-09T10:34:08.263Z,6.28
2023-04-09T10:37:22.834Z,5.13
2023-04-09T10:40:24.359Z,6.05
2023-04-09T10:43:25.796Z,5.65
2023-04-09T10:46:34.742Z,6.05
2023-04-09T10:49:38.498Z,6.90
2023-04-09T10:52:41.658Z,6.57
2023-04-09T10:55:50.221Z,6.25
2023-04-09T10:58:51.965Z,6.57
2023-04-09T11:01:54.666Z,6.93
2023-04-09T11:05:30.090Z,6.43
2023-04-09T11:08:33.370Z,6.28
2023-04-09T11:11:36.442Z,6.40
2023-04-09T11:14:37.872Z,6.30
2023-04-09T11:17:39.429Z,6.03
2023-04-09T11:20:41.366Z,5.68
2023-04-09T11:23:51.845Z,5.78
2023-04-09T11:26:54.771Z,6.22
2023-04-09T11:29:56.643Z,6.13
2023-04-09T11:32:58.108Z,6.53
2023-04-09T11:35:59.753Z,6.72
2023-04-09T11:39:02.400Z,6.45
2023-04-09T11:42:03.890Z,6.20
2023-04-09T11:45:05.989Z,6.63
2023-04-09T11:48:07.641Z,5.88
2023-04-09T11:51:09.282Z,5.47
2023-04-09T11:54:12.167Z,5.53
2023-04-09T11:57:13.640Z,5.45
2023-04-09T12:00:17.408Z,6.00
2023-04-09T12:03:19.293Z,5.90
2023-04-09T12:06:25.282Z,5.72
2023-04-09T12:09:26.862Z,5.18
2023-04-09T12:12:28.314Z,5.07
2023-04-09T12:15:34.659Z,5.32
2023-04-09T12:18:37.993Z,5.95
2023-04-09T12:21:51.924Z,6.15
2023-04-09T12:24:55.037Z,5.00
2023-04-09T12:27:56.757Z,5.07
2023-04-09T12:30:59.496Z,5.20
2023-04-09T12:34:01.182Z,4.97
2023-04-09T12:37:02.658Z,5.00
2023-04-09T12:40:04.495Z,5.07
2023-04-09T12:43:06.245Z,5.15
2023-04-09T12:46:08.207Z,5.07
2023-04-09T12:49:09.678Z,4.50
2023-04-09T12:52:11.158Z,4.47
2023-04-09T12:55:14.257Z,4.68
2023-04-09T12:58:15.884Z,5.18
2023-04-09T13:01:17.981Z,4.47
2023-04-09T13:04:19.570Z,4.60
2023-04-09T13:07:21.160Z,4.50
2023-04-09T13:10:22.687Z,4.47
2023-04-09T13:13:25.013Z,4.88
2023-04-09T13:16:26.863Z,5.57
2023-04-09T13:19:28.419Z,5.10
2023-04-09T13:22:29.902Z,5.32
2023-04-09T13:25:31.382Z,5.45
2023-04-09T13:28:33.216Z,5.78
2023-04-09T13:31:37.954Z,5.80
2023-04-09T13:34:39.882Z,5.20
2023-04-09T13:37:41.955Z,6.47
2023-04-09T13:40:44.226Z,6.05
2023-04-09T13:43:45.746Z,5.10
2023-04-09T13:46:47.272Z,5.20
2023-04-09T13:49:48.746Z,4.85
2023-04-09T13:52:50.405Z,4.88
2023-04-09T13:55:51.857Z,5.00
2023-04-09T13:58:53.441Z,4.97
2023-04-09T14:01:55.699Z,5.75
2023-04-09T14:04:57.240Z,5.15
2023-04-09T14:07:58.934Z,6.03
2023-04-09T14:11:00.740Z,5.20
2023-04-09T14:14:02.380Z,5.07
2023-04-09T14:17:03.839Z,5.50
2023-04-09T14:20:05.963Z,5.60
2023-04-09T14:23:07.496Z,5.93
2023-04-09T14:26:08.969Z,5.03
2023-04-09T14:29:10.860Z,5.95
2023-04-09T14:32:12.309Z,5.63
2023-04-09T14:35:13.874Z,5.35
2023-04-09T14:38:15.367Z,5.05
2023-04-09T14:41:17.006Z,5.07
2023-04-09T14:44:18.451Z,5.32
2023-04-09T14:47:20.045Z,5.00
2023-04-09T14:50:21.555Z,5.07
2023-04-09T14:53:23.420Z,5.10
2023-04-09T14:56:27.736Z,5.13
2023-04-09T14:59:29.218Z,5.32
2023-04-09T15:02:30.888Z,4.90
2023-04-09T15:05:32.527Z,4.60
2023-04-09T15:08:34.042Z,4.93
2023-04-09T15:11:35.512Z,5.30
2023-04-09T15:14:36.968Z,4.80
2023-04-09T15:17:38.486Z,5.38
2023-04-09T15:20:40.380Z,4.82
2023-04-09T15:23:41.860Z,5.07
2023-04-09T15:26:43.410Z,4.78
2023-04-09T15:29:45.063Z,4.90
2023-04-09T15:32:46.571Z,4.80
2023-04-09T15:35:48.116Z,4.82
2023-04-09T15:38:53.922Z,4.75
2023-04-09T15:41:59.020Z,5.65
2023-04-09T15:45:00.521Z,5.40
2023-04-09T15:48:02.066Z,4.97
2023-04-09T15:51:04.938Z,5.43
2023-04-09T15:54:06.374Z,4.93
2023-04-09T15:57:07.881Z,5.05
2023-04-09T16:00:10.715Z,4.78
2023-04-09T16:03:12.782Z,4.70
2023-04-09T16:06:14.430Z,5.78
2023-04-09T16:09:16.161Z,4.85
2023-04-09T16:12:17.592Z,4.93
2023-04-09T16:15:19.041Z,6.00
2023-04-09T16:18:20.652Z,5.45
2023-04-09T16:21:22.353Z,5.65
2023-04-09T16:24:23.795Z,5.53
2023-04-09T16:27:25.362Z,5.90
2023-04-09T16:30:26.940Z,5.60
2023-04-09T16:33:28.468Z,5.22
2023-04-09T16:36:31.517Z,5.35
2023-04-09T16:39:33.091Z,5.82
2023-04-09T16:42:34.640Z,4.90
2023-04-09T16:45:36.226Z,5.28
2023-04-09T16:48:41.623Z,6.07
2023-04-09T16:51:43.279Z,5.60
2023-04-09T16:54:44.811Z,5.47
2023-04-09T16:57:46.338Z,5.95
2023-04-09T17:00:48.772Z,5.63
2023-04-09T17:03:52.184Z,5.97
2023-04-09T17:06:53.751Z,7.50
2023-04-09T17:09:55.410Z,6.07
2023-04-09T17:12:56.881Z,6.43
2023-04-09T17:15:58.570Z,6.95
2023-04-09T17:19:00.117Z,6.32
2023-04-09T17:22:01.641Z,6.68
2023-04-09T17:25:04.748Z,6.30
2023-04-09T17:28:06.911Z,5.93
2023-04-09T17:31:13.279Z,6.43
2023-04-09T17:34:16.264Z,6.38
2023-04-09T17:37:17.706Z,7.07
2023-04-09T17:40:20.050Z,6.07
2023-04-09T17:43:21.492Z,5.28
2023-04-09T17:46:23.760Z,6.00
2023-04-09T17:49:25.318Z,5.82
2023-04-09T17:52:26.836Z,6.47
2023-04-09T17:55:28.358Z,5.93
2023-04-09T17:58:29.987Z,5.50
2023-04-09T18:01:31.527Z,6.40
2023-04-09T18:04:33.910Z,5.43
2023-04-09T18:07:35.882Z,5.80
2023-04-09T18:10:37.377Z,5.38
2023-04-09T18:13:38.998Z,5.95
2023-04-09T18:16:41.241Z,7.15
2023-04-09T18:19:42.826Z,5.45
2023-04-09T18:22:44.297Z,5.28
2023-04-09T18:25:45.989Z,5.72
2023-04-09T18:28:47.489Z,5.50
2023-04-09T18:31:49.070Z,6.03
2023-04-09T18:34:51.981Z,5.90
2023-04-09T18:37:53.490Z,5.75
2023-04-09T18:40:56.457Z,5.20
2023-04-09T18:43:57.966Z,6.30
2023-04-09T18:47:00.014Z,7.82
2023-04-09T18:50:02.383Z,5.57
2023-04-09T18:53:05.543Z,7.13
2023-04-09T18:56:07.236Z,10.80
2023-04-09T18:59:08.730Z,6.25
2023-04-09T19:02:10.706Z,6.20
2023-04-09T19:05:12.363Z,6.20
2023-04-09T19:08:14.110Z,5.07
2023-04-09T19:11:16.152Z,5.40
2023-04-09T19:14:17.632Z,20.63
2023-04-09T19:17:19.207Z,25.50
2023-04-09T19:20:20.968Z,21.73
2023-04-09T19:23:22.390Z,9.50
2023-04-09T19:26:23.932Z,7.05
2023-04-09T19:29:25.469Z,5.82
2023-04-09T19:32:27.087Z,5.63
2023-04-09T19:35:28.784Z,5.95
2023-04-09T19:38:30.246Z,5.97
2023-04-09T19:41:31.813Z,6.70
2023-04-09T19:44:33.306Z,6.10
2023-04-09T19:47:34.945Z,6.30
2023-04-09T19:50:37.942Z,5.85
2023-04-09T19:53:40.033Z,5.22
2023-04-09T19:56:42.437Z,6.80
2023-04-09T19:59:43.892Z,6.82
2023-04-09T20:02:45.618Z,7.53
2023-04-09T20:05:47.737Z,5.65
2023-04-09T20:08:49.543Z,5.78
2023-04-09T20:11:51.236Z,5.75
2023-04-09T20:14:52.712Z,4.97
2023-04-09T20:17:54.245Z,5.90
2023-04-09T20:20:55.913Z,5.70
2023-04-09T20:23:57.340Z,6.03
2023-04-09T20:26:59.630Z,7.20
2023-04-09T20:30:02.062Z,7.18
2023-04-09T20:33:03.630Z,6.65
2023-04-09T20:36:14.470Z,6.05
2023-04-09T20:39:16.261Z,5.90
2023-04-09T20:42:17.741Z,6.32
2023-04-09T20:45:19.262Z,5.30
2023-04-09T20:48:20.932Z,4.95
2023-04-09T20:51:22.872Z,18.52
2023-04-09T20:54:24.352Z,20.65
2023-04-09T20:57:25.929Z,7.90
2023-04-09T21:00:27.491Z,7.55
2023-04-09T21:03:29.813Z,7.50
2023-04-09T21:06:31.711Z,6.13
2023-04-09T21:09:34.080Z,6.30
2023-04-09T21:12:35.657Z,6.72
2023-04-09T21:15:37.174Z,6.90
2023-04-09T21:18:38.736Z,6.55
2023-04-09T21:21:40.364Z,5.72
2023-04-09T21:24:41.844Z,5.70
2023-04-09T21:27:43.327Z,6.25
2023-04-09T21:30:44.777Z,6.45
2023-04-09T21:33:46.396Z,6.07
2023-04-09T21:36:48.542Z,6.75
2023-04-09T21:39:50.110Z,9.57
2023-04-09T21:42:52.025Z,9.25
2023-04-09T21:45:53.697Z,7.25
2023-04-09T21:48:55.261Z,7.07
2023-04-09T21:51:59.151Z,8.95
2023-04-09T21:55:00.882Z,9.07
2023-04-09T21:58:03.471Z,7.72
2023-04-09T22:01:07.463Z,7.80
2023-04-09T22:04:13.583Z,8.27
2023-04-09T22:07:15.297Z,7.57
2023-04-09T22:10:16.870Z,8.95
2023-04-09T22:13:18.278Z,8.50
2023-04-09T22:16:19.904Z,8.65
2023-04-09T22:19:21.634Z,8.93
2023-04-09T22:22:23.121Z,8.93
2023-04-09T22:25:24.882Z,10.15
2023-04-09T22:28:26.381Z,8.48
2023-04-09T22:31:27.886Z,9.13
2023-04-09T22:34:29.357Z,9.38
2023-04-09T22:37:30.856Z,9.52
2023-04-09T22:40:32.330Z,9.13
2023-04-09T22:43:33.772Z,10.13
2023-04-09T22:46:36.055Z,9.25
2023-04-09T22:49:37.513Z,9.77
2023-04-09T22:52:38.945Z,10.60
2023-04-09T22:55:40.564Z,9.48
2023-04-09T22:58:42.133Z,10.40
2023-04-09T23:01:43.718Z,9.60
2023-04-09T23:04:45.445Z,9.27
2023-04-09T23:07:47.052Z,9.50
2023-04-09T23:10:48.534Z,9.90
2023-04-09T23:13:50.003Z,10.63
2023-04-09T23:16:51.464Z,9.55
2023-04-09T23:19:52.936Z,10.13
2023-04-09T23:22:54.429Z,10.02
2023-04-09T23:25:55.936Z,9.40
2023-04-09T23:28:57.429Z,10.27
2023-04-09T23:31:59.210Z,9.82
2023-04-09T23:35:01.693Z,10.13
2023-04-09T23:38:03.215Z,10.25
2023-04-09T23:41:04.895Z,10.02
2023-04-09T23:44:06.344Z,9.93
2023-04-09T23:47:07.918Z,10.50
2023-04-09T23:50:09.902Z,9.63
2023-04-09T23:53:11.657Z,10.10
2023-04-09T23:56:16.168Z,10.02
2023-04-09T23:59:17.660Z,9.82
